Time;durP1;ratioP1;P1;durP2;ratioP2;P2;SDS_P1;SDS_P2;PMS_P1;PMS_P2;Temp;Humidity;BMP_temperature;BMP_pressure;BME280_temperature;BME280_humidity;BME280_pressure;Samples;Min_cycle;Max_cycle;Signal;HPM_P1;HPM_P2
2024/03/08 00:01:02;;;;;;;30.55;20.48;;;;;;;4.63;100.00;93001.50;5109049;28;20035;-72
2024/03/08 00:03:29;;;;;;;30.20;19.88;;;;;;;4.62;100.00;93005.78;5100565;28;20051;-72
2024/03/08 00:05:57;;;;;;;28.95;20.83;;;;;;;4.81;100.00;93004.44;5106798;28;20416;-72
2024/03/08 00:08:24;;;;;;;27.90;19.48;;;;;;;4.76;100.00;92999.09;5100066;28;20408;-73
2024/03/08 00:10:51;;;;;;;33.75;22.02;;;;;;;4.63;100.00;93007.34;5105837;28;20131;-75
2024/03/08 00:13:18;;;;;;;27.90;21.33;;;;;;;4.59;100.00;92992.63;5108417;28;20124;-75
2024/03/08 00:15:45;;;;;;;31.15;20.98;;;;;;;4.61;100.00;92988.13;5099048;28;20536;-75
2024/03/08 00:18:14;;;;;;;28.25;19.92;;;;;;;4.55;100.00;93002.38;5108309;28;20054;-75
2024/03/08 00:20:41;;;;;;;26.45;18.08;;;;;;;4.49;100.00;93005.63;5108925;28;20131;-75
2024/03/08 00:23:08;;;;;;;29.10;19.67;;;;;;;4.56;100.00;93003.94;5104468;28;20051;-75
2024/03/08 00:25:35;;;;;;;29.88;20.42;;;;;;;4.70;100.00;93001.53;5109024;28;20054;-75
2024/03/08 00:28:02;;;;;;;29.92;20.08;;;;;;;4.73;100.00;92996.91;5106046;28;20085;-74
2024/03/08 00:30:31;;;;;;;25.08;18.65;;;;;;;4.69;100.00;92998.22;5102374;28;20051;-75
2024/03/08 00:32:58;;;;;;;26.40;18.52;;;;;;;4.85;100.00;92991.34;5102575;28;20043;-75
2024/03/08 00:35:26;;;;;;;27.17;19.05;;;;;;;4.81;100.00;92985.81;5108999;28;20043;-74
2024/03/08 00:37:56;;;;;;;26.70;17.75;;;;;;;4.40;100.00;92990.44;5101757;28;20047;-74
2024/03/08 00:40:23;;;;;;;27.23;19.15;;;;;;;4.65;100.00;92987.63;5106553;28;20043;-73
2024/03/08 00:42:50;;;;;;;27.63;18.85;;;;;;;4.82;100.00;92977.22;5106629;28;20048;-75
2024/03/08 00:45:17;;;;;;;28.98;19.38;;;;;;;4.81;100.00;92986.63;5107860;28;20054;-77
2024/03/08 00:47:44;;;;;;;23.27;17.05;;;;;;;4.55;100.00;92987.13;5105010;28;20416;-75
2024/03/08 00:50:12;;;;;;;24.98;17.42;;;;;;;4.75;100.00;92968.72;5107244;28;20048;-74
2024/03/08 00:52:41;;;;;;;21.02;15.27;;;;;;;4.92;100.00;92980.25;5108886;28;20073;-75
2024/03/08 00:55:10;;;;;;;21.88;14.73;;;;;;;4.83;100.00;92978.81;5106580;28;20054;-75
2024/03/08 00:57:38;;;;;;;21.25;14.02;;;;;;;4.54;100.00;92977.91;5102049;28;20043;-74
2024/03/08 01:00:11;;;;;;;16.52;11.73;;;;;;;4.55;100.00;92971.84;5107013;28;20048;-76
2024/03/08 01:02:38;;;;;;;19.83;13.00;;;;;;;4.36;100.00;92973.19;5104796;28;20043;-74
2024/03/08 01:05:07;;;;;;;23.17;16.40;;;;;;;4.35;100.00;92953.81;5103132;28;20047;-74
2024/03/08 01:07:35;;;;;;;23.05;16.13;;;;;;;4.56;100.00;92963.25;5103164;28;20055;-74
2024/03/08 01:10:03;;;;;;;23.05;16.92;;;;;;;4.72;100.00;92959.69;5107749;28;20047;-74
2024/03/08 01:12:30;;;;;;;26.08;17.08;;;;;;;4.55;100.00;92946.41;5101899;28;20515;-74
2024/03/08 01:14:58;;;;;;;26.52;18.08;;;;;;;4.31;100.00;92937.31;5103850;28;20047;-74
2024/03/08 01:17:25;;;;;;;23.90;16.33;;;;;;;4.43;100.00;92968.19;5107212;28;20066;-72
2024/03/08 01:19:53;;;;;;;25.10;17.80;;;;;;;4.63;100.00;92956.47;5107286;28;20051;-72
2024/03/08 01:22:20;;;;;;;27.42;18.30;;;;;;;4.28;100.00;92962.16;5098636;28;20505;-72
2024/03/08 01:24:47;;;;;;;23.92;16.35;;;;;;;4.21;100.00;92951.09;5106558;28;20096;-72
2024/03/08 01:27:15;;;;;;;25.02;16.02;;;;;;;4.04;100.00;92940.34;5104841;28;20413;-72
2024/03/08 01:29:42;;;;;;;24.60;16.58;;;;;;;4.32;100.00;92954.16;5104633;28;20044;-72
2024/03/08 01:32:09;;;;;;;23.40;15.77;;;;;;;4.34;100.00;92949.66;5107333;28;20052;-72
2024/03/08 01:34:36;;;;;;;23.00;15.93;;;;;;;4.32;100.00;92929.53;5107244;28;20047;-72
2024/03/08 01:37:03;;;;;;;20.63;14.45;;;;;;;3.96;100.00;92946.28;5102165;28;20051;-72
2024/03/08 01:39:31;;;;;;;22.73;14.45;;;;;;;4.14;100.00;92945.94;5106137;28;20047;-72
2024/03/08 01:41:58;;;;;;;18.50;13.02;;;;;;;3.74;100.00;92937.78;5102934;28;20495;-73
2024/03/08 01:44:26;;;;;;;14.48;10.45;;;;;;;3.79;100.00;92948.19;5104445;28;20086;-74
2024/03/08 01:46:54;;;;;;;18.15;12.48;;;;;;;4.00;100.00;92945.00;5106660;28;20055;-73
2024/03/08 01:49:23;;;;;;;21.42;14.43;;;;;;;4.04;100.00;92942.88;5107134;28;20043;-74
2024/03/08 01:51:50;;;;;;;15.00;11.10;;;;;;;3.99;100.00;92943.38;5102549;28;20075;-74
2024/03/08 01:54:20;;;;;;;16.33;11.65;;;;;;;4.25;100.00;92941.34;5106891;28;20123;-75
2024/03/08 01:56:48;;;;;;;15.23;11.50;;;;;;;4.47;100.00;92936.31;5101065;28;20055;-73
2024/03/08 01:59:16;;;;;;;16.58;11.32;;;;;;;3.93;100.00;92908.50;5102290;28;20535;-74
2024/03/08 02:01:45;;;;;;;14.60;11.07;;;;;;;4.36;100.00;92943.44;5104899;28;20534;-74
2024/03/08 02:04:12;;;;;;;14.50;10.45;;;;;;;4.28;100.00;92926.56;5102920;28;20054;-75
2024/03/08 02:06:39;;;;;;;11.95;8.60;;;;;;;4.18;100.00;92940.50;5105265;28;20046;-75
2024/03/08 02:09:06;;;;;;;13.65;8.90;;;;;;;4.31;100.00;92934.78;5106628;28;20118;-75
2024/03/08 02:11:34;;;;;;;12.68;8.82;;;;;;;4.27;100.00;92944.53;5106131;28;20047;-75
2024/03/08 02:14:01;;;;;;;11.95;9.23;;;;;;;3.99;100.00;92943.38;5099010;28;20054;-75
2024/03/08 02:16:28;;;;;;;10.95;8.45;;;;;;;4.37;100.00;92939.16;5102156;28;20516;-75
2024/03/08 02:18:56;;;;;;;11.50;8.50;;;;;;;4.45;100.00;92938.28;5106603;28;20057;-74
2024/03/08 02:21:25;;;;;;;14.07;9.90;;;;;;;4.70;100.00;92938.75;5098750;28;20134;-74
2024/03/08 02:23:52;;;;;;;11.57;7.80;;;;;;;4.71;100.00;92932.69;5101985;28;20043;-73
2024/03/08 02:26:19;;;;;;;9.98;6.15;;;;;;;4.21;100.00;92935.84;5106374;28;20504;-75
2024/03/08 02:28:46;;;;;;;8.15;6.13;;;;;;;4.03;100.00;92941.28;5105093;28;20127;-75
2024/03/08 02:31:13;;;;;;;9.02;6.43;;;;;;;3.70;100.00;92922.09;5106748;28;20132;-75
2024/03/08 02:33:40;;;;;;;7.72;5.57;;;;;;;3.84;100.00;92935.75;5106589;28;20504;-74
2024/03/08 02:36:08;;;;;;;9.70;6.63;;;;;;;4.08;100.00;92933.16;5104907;28;20048;-74
2024/03/08 02:38:36;;;;;;;10.68;7.15;;;;;;;4.19;100.00;92939.53;5102655;28;20613;-74
2024/03/08 02:41:04;;;;;;;9.52;6.78;;;;;;;3.91;100.00;92935.88;5106482;28;20046;-72
2024/03/08 02:43:31;;;;;;;10.35;7.85;;;;;;;3.88;100.00;92937.00;5102904;28;20160;-72
2024/03/08 02:45:57;;;;;;;7.32;4.95;;;;;;;3.71;100.00;92936.38;5103259;28;20046;-73
2024/03/08 02:48:25;;;;;;;8.25;6.38;;;;;;;3.92;100.00;92932.34;5106547;28;20051;-73
2024/03/08 02:50:53;;;;;;;9.15;5.80;;;;;;;3.79;100.00;92899.16;5105644;28;20043;-72
2024/03/08 02:53:20;;;;;;;7.28;5.30;;;;;;;3.68;100.00;92931.66;5098625;28;20047;-72
2024/03/08 02:55:49;;;;;;;8.20;5.63;;;;;;;3.57;100.00;92932.84;5104934;28;20042;-72
2024/03/08 02:58:16;;;;;;;8.45;6.28;;;;;;;3.74;100.00;92937.78;5110601;28;20078;-72
2024/03/08 03:00:43;;;;;;;8.35;6.30;;;;;;;3.67;100.00;92926.75;5107886;28;20556;-73
2024/03/08 03:03:10;;;;;;;8.07;5.65;;;;;;;3.76;100.00;92930.78;5110221;28;20165;-73
2024/03/08 03:05:37;;;;;;;7.43;4.80;;;;;;;3.76;100.00;92930.78;5105284;28;20040;-72
2024/03/08 03:08:08;;;;;;;7.72;5.53;;;;;;;3.92;100.00;92916.31;5108501;28;20048;-72
2024/03/08 03:10:35;;;;;;;7.65;6.13;;;;;;;3.85;100.00;92928.94;5110593;28;20047;-72
2024/03/08 03:13:05;;;;;;;6.88;5.65;;;;;;;3.75;100.00;92934.25;5109259;28;20537;-72
2024/03/08 03:15:33;;;;;;;30.55;16.77;;;;;;;3.87;100.00;92927.81;5105316;28;20043;-72
2024/03/08 03:18:00;;;;;;;9.05;6.13;;;;;;;3.74;100.00;92909.81;5109680;28;20055;-72
2024/03/08 03:20:32;;;;;;;6.53;4.63;;;;;;;3.91;100.00;92946.03;5110120;28;20551;-72
2024/03/08 03:23:01;;;;;;;5.45;4.10;;;;;;;3.94;100.00;92942.34;5105749;28;20444;-72
2024/03/08 03:25:34;;;;;;;7.18;4.07;;;;;;;3.74;100.00;92951.28;5110024;28;20071;-72
2024/03/08 03:28:01;;;;;;;5.55;4.32;;;;;;;3.75;100.00;92952.03;5110030;28;20120;-71
2024/03/08 03:30:32;;;;;;;5.93;3.92;;;;;;;3.54;100.00;92950.19;5106473;28;20417;-71
2024/03/08 03:33:00;;;;;;;7.25;5.13;;;;;;;3.51;100.00;92948.00;5104287;28;20035;-71
2024/03/08 03:35:27;;;;;;;7.80;4.57;;;;;;;3.49;100.00;92953.25;5105107;28;20056;-71
2024/03/08 03:38:05;;;;;;;8.30;5.70;;;;;;;3.62;100.00;92957.75;5105206;28;20605;-72
2024/03/08 03:40:32;;;;;;;6.43;4.15;;;;;;;3.66;100.00;92958.19;5106140;28;20051;-72
2024/03/08 03:42:59;;;;;;;6.57;5.00;;;;;;;3.66;100.00;92956.41;5103653;28;20050;-72
2024/03/08 03:45:26;;;;;;;3.72;3.10;;;;;;;3.90;100.00;92959.69;5109039;28;20039;-71
2024/03/08 03:47:55;;;;;;;4.70;3.42;;;;;;;4.11;100.00;92978.53;5101419;28;20056;-71
2024/03/08 03:50:23;;;;;;;3.40;2.10;;;;;;;3.40;100.00;92944.13;5108522;28;20058;-71
2024/03/08 03:52:51;;;;;;;3.15;2.05;;;;;;;3.54;100.00;92978.13;5104826;28;20044;-71
2024/03/08 03:55:19;;;;;;;2.95;2.00;;;;;;;3.55;100.00;92983.03;5108815;28;20051;-71
2024/03/08 03:57:46;;;;;;;5.22;3.22;;;;;;;3.98;100.00;92981.72;5109137;28;20051;-71
2024/03/08 04:00:14;;;;;;;4.07;2.90;;;;;;;4.06;100.00;92983.34;5108056;28;20646;-71
2024/03/08 04:02:42;;;;;;;3.72;2.70;;;;;;;3.90;100.00;92982.56;5108531;28;20492;-71
2024/03/08 04:05:11;;;;;;;4.60;2.63;;;;;;;4.20;100.00;92981.78;5109060;28;20782;-71
2024/03/08 04:07:39;;;;;;;3.40;2.70;;;;;;;4.05;100.00;92985.13;5105889;28;20056;-72
2024/03/08 04:10:08;;;;;;;4.60;3.22;;;;;;;4.12;100.00;92995.38;5108911;28;20054;-72
2024/03/08 04:12:35;;;;;;;5.63;3.95;;;;;;;4.18;100.00;92999.75;5105577;28;20650;-72
2024/03/08 04:15:02;;;;;;;5.38;3.40;;;;;;;3.99;100.00;92976.44;5108220;28;20039;-72
2024/03/08 04:17:29;;;;;;;5.32;3.45;;;;;;;4.28;100.00;92999.50;5103087;28;20107;-72
2024/03/08 04:19:56;;;;;;;7.28;4.97;;;;;;;4.37;100.00;93003.53;5105892;28;20043;-72
2024/03/08 04:22:25;;;;;;;7.53;5.35;;;;;;;4.55;100.00;92998.06;5108306;28;20446;-71
2024/03/08 04:24:52;;;;;;;4.25;3.08;;;;;;;4.30;100.00;92978.97;5105508;28;20046;-72
2024/03/08 04:27:19;;;;;;;4.32;3.22;;;;;;;4.13;100.00;93014.75;5108377;28;20664;-72
2024/03/08 04:29:46;;;;;;;4.40;3.10;;;;;;;4.49;100.00;93020.88;5108806;28;20086;-72
2024/03/08 04:32:13;;;;;;;3.42;2.58;;;;;;;4.51;100.00;93013.88;5106525;28;20039;-72
2024/03/08 04:34:40;;;;;;;4.68;2.92;;;;;;;4.23;100.00;92989.84;5108562;28;20110;-72
2024/03/08 04:37:10;;;;;;;3.80;2.60;;;;;;;4.35;100.00;93017.38;5107444;28;20057;-72
2024/03/08 04:39:39;;;;;;;2.90;2.53;;;;;;;4.27;100.00;93026.66;5103845;28;20512;-71
2024/03/08 04:42:09;;;;;;;3.60;2.35;;;;;;;4.07;100.00;93013.69;5108122;28;20512;-72
2024/03/08 04:44:37;;;;;;;5.25;3.35;;;;;;;3.81;100.00;92993.78;5101497;28;20051;-72
2024/03/08 04:47:05;;;;;;;5.65;3.97;;;;;;;3.82;100.00;93013.13;5105594;28;20043;-71
2024/03/08 04:49:34;;;;;;;4.88;3.50;;;;;;;3.95;100.00;93022.69;5104036;28;20452;-71
2024/03/08 04:52:02;;;;;;;4.00;2.70;;;;;;;3.79;100.00;93026.97;5099121;28;20079;-72
2024/03/08 04:54:29;;;;;;;4.28;3.03;;;;;;;3.75;100.00;93020.63;5104973;27;20070;-72
2024/03/08 04:56:59;;;;;;;5.05;3.40;;;;;;;3.52;100.00;93034.16;5110702;27;20050;-71
2024/03/08 04:59:26;;;;;;;4.88;3.15;;;;;;;3.48;100.00;93027.88;5107595;28;20534;-71
2024/03/08 05:01:53;;;;;;;4.80;3.42;;;;;;;3.61;100.00;93025.53;5106769;28;20058;-71
2024/03/08 05:04:20;;;;;;;5.53;4.03;;;;;;;3.69;100.00;93036.56;5105306;28;20051;-71
2024/03/08 05:06:48;;;;;;;4.82;3.60;;;;;;;3.65;100.00;93035.34;5104242;28;20048;-71
2024/03/08 05:09:16;;;;;;;6.53;4.65;;;;;;;3.81;100.00;93042.03;5101075;28;20505;-71
2024/03/08 05:11:45;;;;;;;4.85;4.10;;;;;;;3.99;100.00;93045.03;5107930;27;20079;-71
2024/03/08 05:14:16;;;;;;;4.38;3.45;;;;;;;3.99;100.00;93046.81;5104511;28;20510;-71
2024/03/08 05:16:43;;;;;;;4.18;2.63;;;;;;;3.85;100.00;93056.00;5105585;28;20047;-71
2024/03/08 05:19:10;;;;;;;4.25;2.95;;;;;;;4.05;100.00;93046.13;5095408;28;20050;-71
2024/03/08 05:21:37;;;;;;;5.63;3.83;;;;;;;4.22;100.00;93051.03;5089949;28;20043;-72
2024/03/08 05:24:05;;;;;;;5.57;4.13;;;;;;;4.32;100.00;93036.31;5103753;28;20512;-71
2024/03/08 05:26:33;;;;;;;4.75;3.83;;;;;;;4.59;100.00;93056.22;5107525;28;20046;-71
2024/03/08 05:29:00;;;;;;;5.05;3.40;;;;;;;4.81;100.00;93054.53;5103827;28;20104;-73
2024/03/08 05:31:28;;;;;;;5.72;3.42;;;;;;;5.01;100.00;93059.88;5098528;28;20059;-74
2024/03/08 05:33:56;;;;;;;4.47;2.92;;;;;;;4.85;100.00;93029.53;5093260;28;20539;-74
2024/03/08 05:36:23;;;;;;;4.20;3.22;;;;;;;5.19;100.00;93067.09;5094768;28;20398;-72
2024/03/08 05:38:50;;;;;;;12.05;9.00;;;;;;;5.25;100.00;93072.44;5090539;28;20047;-72
2024/03/08 05:41:18;;;;;;;8.85;5.75;;;;;;;5.25;100.00;93075.78;5088245;28;20446;-72
2024/03/08 05:43:45;;;;;;;10.02;6.55;;;;;;;5.15;100.00;93088.81;5095879;28;20056;-72
2024/03/08 05:46:12;;;;;;;11.40;7.05;;;;;;;4.98;100.00;93090.75;5093315;28;20045;-74
2024/03/08 05:48:41;;;;;;;9.40;5.82;;;;;;;4.94;100.00;93081.91;5093147;28;20063;-73
2024/03/08 05:51:07;;;;;;;11.80;7.07;;;;;;;5.00;100.00;93093.13;5094411;28;20048;-72
2024/03/08 05:53:34;;;;;;;6.10;3.75;;;;;;;4.78;100.00;93098.16;5089897;28;20048;-73
2024/03/08 05:56:03;;;;;;;6.25;4.25;;;;;;;4.62;100.00;93091.47;5100724;28;20126;-72
2024/03/08 05:58:31;;;;;;;5.47;4.22;;;;;;;4.54;100.00;93090.59;5091462;28;20056;-72
2024/03/08 06:00:58;;;;;;;4.93;3.88;;;;;;;3.98;100.00;93091.75;5096985;27;20043;-72
2024/03/08 06:03:25;;;;;;;7.18;4.70;;;;;;;4.22;100.00;93095.03;5093336;28;20051;-73
2024/03/08 06:05:53;;;;;;;6.05;5.00;;;;;;;4.14;100.00;93105.31;5095712;28;20056;-73
2024/03/08 06:08:20;;;;;;;7.32;6.32;;;;;;;3.97;100.00;93102.09;5091868;28;20047;-73
2024/03/08 06:10:52;;;;;;;7.05;5.95;;;;;;;3.73;100.00;93096.25;5097533;28;20036;-72
2024/03/08 06:13:19;;;;;;;7.43;5.50;;;;;;;3.69;100.00;93105.16;5091182;28;20215;-72
2024/03/08 06:15:46;;;;;;;7.60;5.80;;;;;;;3.65;100.00;93103.94;5094256;28;20417;-72
2024/03/08 06:18:14;;;;;;;9.70;5.97;;;;;;;3.35;100.00;93096.97;5092318;28;20048;-72
2024/03/08 06:20:43;;;;;;;8.27;6.43;;;;;;;3.36;100.00;93106.16;5103109;28;20097;-72
2024/03/08 06:23:11;;;;;;;7.32;6.07;;;;;;;3.32;100.00;93100.63;5088341;28;20592;-72
2024/03/08 06:25:39;;;;;;;7.30;6.60;;;;;;;3.53;100.00;93111.16;5095970;28;20050;-72
2024/03/08 06:28:06;;;;;;;9.07;7.07;;;;;;;3.65;100.00;93114.88;5097119;28;20130;-72
2024/03/08 06:30:34;;;;;;;8.80;6.97;;;;;;;3.43;100.00;93099.44;5093929;28;20054;-72
2024/03/08 06:33:02;;;;;;;9.30;7.60;;;;;;;3.50;100.00;93111.47;5094084;28;20141;-75
2024/03/08 06:35:31;;;;;;;10.35;7.55;;;;;;;3.50;100.00;93124.16;5102806;27;20058;-72
2024/03/08 06:37:58;;;;;;;9.85;7.97;;;;;;;3.57;100.00;93125.09;5095597;28;20055;-73
2024/03/08 06:40:26;;;;;;;10.93;8.20;;;;;;;3.37;100.00;93117.13;5098843;28;20044;-72
2024/03/08 06:42:53;;;;;;;9.38;7.80;;;;;;;3.48;100.00;93116.75;5093170;28;20080;-72
2024/03/08 06:45:20;;;;;;;10.75;8.27;;;;;;;3.68;100.00;93123.91;5097919;28;20047;-72
2024/03/08 06:47:47;;;;;;;9.70;8.68;;;;;;;3.52;100.00;93117.97;5099546;28;20060;-72
2024/03/08 06:50:15;;;;;;;10.95;9.57;;;;;;;3.65;100.00;93135.19;5092421;28;20072;-72
2024/03/08 06:52:42;;;;;;;14.88;9.57;;;;;;;3.77;100.00;93138.16;5094354;27;20052;-74
2024/03/08 06:55:11;;;;;;;14.15;10.07;;;;;;;3.64;100.00;93136.16;5095203;28;20277;-74
2024/03/08 06:57:40;;;;;;;11.88;9.77;;;;;;;3.98;100.00;93137.50;5094259;28;20460;-72
2024/03/08 07:00:11;;;;;;;12.27;10.13;;;;;;;3.82;100.00;93138.44;5099452;28;20796;-72
2024/03/08 07:02:39;;;;;;;13.15;10.57;;;;;;;3.41;100.00;93133.59;5092121;28;20125;-72
2024/03/08 07:05:10;;;;;;;12.00;10.32;;;;;;;3.41;100.00;93136.13;5094312;28;20095;-73
2024/03/08 07:07:37;;;;;;;12.90;9.70;;;;;;;3.38;100.00;93137.25;5093042;28;20123;-73
2024/03/08 07:10:05;;;;;;;10.13;8.98;;;;;;;3.54;100.00;93143.22;5093924;28;20459;-73
2024/03/08 07:12:32;;;;;;;11.35;10.10;;;;;;;3.52;100.00;93132.44;5095695;28;20049;-73
2024/03/08 07:15:00;;;;;;;12.82;10.52;;;;;;;3.71;100.00;93136.28;5094638;28;20044;-73
2024/03/08 07:17:27;;;;;;;15.45;12.43;;;;;;;3.96;100.00;93136.09;5092927;28;20043;-73
2024/03/08 07:19:55;;;;;;;14.57;11.95;;;;;;;4.17;100.00;93130.34;5095421;28;20156;-73
2024/03/08 07:22:23;;;;;;;14.43;11.05;;;;;;;3.69;100.00;93136.44;5094101;28;20567;-73
2024/03/08 07:25:04;;;;;;;14.50;12.48;;;;;;;3.66;100.00;93134.22;5092996;28;20421;-73
2024/03/08 07:27:31;;;;;;;16.90;12.73;;;;;;;3.72;100.00;93137.84;5094470;27;20077;-73
2024/03/08 07:30:00;;;;;;;14.05;11.45;;;;;;;3.66;100.00;93129.16;5094386;28;20044;-73
2024/03/08 07:32:29;;;;;;;17.38;12.65;;;;;;;3.58;100.00;93129.22;5092451;28;20058;-73
2024/03/08 07:34:57;;;;;;;19.58;12.32;;;;;;;3.87;100.00;93135.38;5096181;28;20047;-73
2024/03/08 07:37:24;;;;;;;17.45;12.63;;;;;;;3.85;100.00;93132.22;5091614;28;20077;-73
2024/03/08 07:39:51;;;;;;;14.73;11.40;;;;;;;3.48;100.00;93145.44;5089491;28;20538;-73
2024/03/08 07:42:18;;;;;;;17.58;11.43;;;;;;;3.63;100.00;93144.75;5095305;28;20424;-73
2024/03/08 07:44:46;;;;;;;14.05;11.10;;;;;;;3.73;100.00;93137.69;5090454;28;20048;-73
2024/03/08 07:47:14;;;;;;;15.35;12.27;;;;;;;3.97;100.00;93135.94;5096634;28;20120;-73
2024/03/08 07:49:41;;;;;;;13.60;11.50;;;;;;;3.90;100.00;93142.66;5092409;28;20063;-73
2024/03/08 07:52:08;;;;;;;18.25;12.25;;;;;;;4.01;100.00;93138.91;5091428;28;20040;-73
2024/03/08 07:54:35;;;;;;;15.32;11.10;;;;;;;4.13;100.00;93149.47;5100817;28;20122;-73
2024/03/08 07:57:04;;;;;;;14.63;10.85;;;;;;;4.09;100.00;93116.00;5093033;28;20048;-73
2024/03/08 07:59:31;;;;;;;14.32;11.55;;;;;;;4.46;100.00;93135.69;5089742;28;20051;-73
2024/03/08 08:01:59;;;;;;;15.32;13.00;;;;;;;4.71;100.00;93143.88;5092771;28;20044;-73
2024/03/08 08:04:27;;;;;;;13.82;10.82;;;;;;;4.62;100.00;93140.63;5092820;28;20044;-74
2024/03/08 08:06:55;;;;;;;12.52;10.55;;;;;;;4.67;100.00;93122.28;5090016;28;20152;-73
2024/03/08 08:09:28;;;;;;;13.05;10.23;;;;;;;4.95;100.00;93147.91;5092472;28;20069;-73
2024/03/08 08:11:55;;;;;;;12.55;10.02;;;;;;;5.03;100.00;93161.50;5090803;28;20055;-73
2024/03/08 08:14:22;;;;;;;12.13;10.43;;;;;;;5.04;100.00;93135.06;5099905;28;20056;-72
2024/03/08 08:16:52;;;;;;;12.00;9.52;;;;;;;5.38;100.00;93153.31;5097577;28;20064;-72
2024/03/08 08:19:19;;;;;;;12.95;9.77;;;;;;;5.13;100.00;93156.16;5095151;28;20055;-72
2024/03/08 08:21:48;;;;;;;13.95;10.68;;;;;;;5.06;100.00;93149.19;5098845;28;20060;-72
2024/03/08 08:24:15;;;;;;;14.68;10.40;;;;;;;5.43;100.00;93144.16;5092461;28;20059;-73
2024/03/08 08:26:44;;;;;;;14.05;10.68;;;;;;;5.12;100.00;93154.56;5091668;27;20048;-72
2024/03/08 08:29:11;;;;;;;14.50;11.27;;;;;;;5.46;100.00;93143.03;5099478;28;20051;-73
2024/03/08 08:31:38;;;;;;;12.55;10.20;;;;;;;5.48;100.00;93149.50;5096867;28;20043;-72
2024/03/08 08:34:06;;;;;;;13.02;9.70;;;;;;;5.70;100.00;93143.66;5091333;28;20553;-72
2024/03/08 08:36:33;;;;;;;11.82;9.52;;;;;;;5.61;100.00;93153.94;5089676;28;20048;-72
2024/03/08 08:39:03;;;;;;;12.68;9.35;;;;;;;5.72;100.00;93150.16;5090509;28;20067;-73
2024/03/08 08:41:30;;;;;;;11.50;9.15;;;;;;;6.05;100.00;93148.09;5090577;28;20063;-72
2024/03/08 08:43:57;;;;;;;12.02;9.55;;;;;;;6.30;100.00;93155.38;5089063;28;20075;-73
2024/03/08 08:46:24;;;;;;;10.65;8.45;;;;;;;5.87;100.00;93154.38;5098520;28;20093;-73
2024/03/08 08:48:51;;;;;;;12.48;9.85;;;;;;;6.24;100.00;93152.59;5097883;28;20050;-73
2024/03/08 08:51:19;;;;;;;14.40;9.70;;;;;;;5.75;100.00;93151.53;5090281;28;20052;-73
2024/03/08 08:53:47;;;;;;;43.20;30.70;;;;;;;5.84;100.00;93140.25;5091061;28;20050;-73
2024/03/08 08:56:15;;;;;;;17.80;12.15;;;;;;;5.91;100.00;93144.59;5091901;28;20051;-73
2024/03/08 08:58:42;;;;;;;17.13;12.48;;;;;;;5.88;100.00;93141.47;5089600;28;20056;-73
2024/03/08 09:01:10;;;;;;;33.22;23.92;;;;;;;5.66;100.00;93119.50;5089700;28;20052;-73
2024/03/08 09:03:37;;;;;;;14.05;11.98;;;;;;;6.08;100.00;93142.66;5089253;28;20083;-74
2024/03/08 09:06:05;;;;;;;15.32;12.18;;;;;;;5.92;100.00;93148.75;5093410;28;20048;-73
2024/03/08 09:08:32;;;;;;;10.27;8.20;;;;;;;5.64;100.00;93149.47;5089893;28;21035;-73
2024/03/08 09:11:00;;;;;;;14.68;10.20;;;;;;;5.97;100.00;93156.66;5099638;28;20051;-73
2024/03/08 09:13:28;;;;;;;11.43;9.35;;;;;;;6.12;100.00;93152.28;5091132;28;20460;-73
2024/03/08 09:15:55;;;;;;;11.60;8.85;;;;;;;6.21;100.00;93157.28;5095434;28;20054;-73
2024/03/08 09:18:22;;;;;;;11.93;8.82;;;;;;;6.08;100.00;93155.41;5094958;28;20070;-74
2024/03/08 09:20:50;;;;;;;11.88;9.55;;;;;;;6.04;100.00;93152.44;5094558;28;20124;-73
2024/03/08 09:23:17;;;;;;;8.65;7.70;;;;;;;6.23;100.00;93134.91;5089614;28;20063;-73
2024/03/08 09:25:44;;;;;;;7.93;5.85;;;;;;;6.34;100.00;93156.59;5091016;28;20093;-73
2024/03/08 09:28:12;;;;;;;7.90;6.05;;;;;;;6.80;100.00;93152.75;5090366;28;20499;-73
2024/03/08 09:30:40;;;;;;;10.60;7.55;;;;;;;7.24;100.00;93153.41;5089209;28;20046;-73
2024/03/08 09:33:07;;;;;;;9.70;7.30;;;;;;;6.95;100.00;93153.44;5090055;28;20051;-73
2024/03/08 09:35:34;;;;;;;8.65;6.70;;;;;;;7.17;100.00;93120.16;5092632;28;20044;-73
2024/03/08 09:38:04;;;;;;;8.70;6.85;;;;;;;7.68;100.00;93164.16;5091462;28;21025;-73
2024/03/08 09:40:32;;;;;;;9.07;6.63;;;;;;;7.87;100.00;93172.09;5093335;28;20052;-73
2024/03/08 09:42:59;;;;;;;8.00;6.20;;;;;;;7.79;100.00;93169.69;5091279;28;20803;-73
2024/03/08 09:45:27;;;;;;;12.75;9.10;;;;;;;7.93;100.00;93168.75;5089705;28;20054;-73
2024/03/08 09:47:55;;;;;;;9.07;5.78;;;;;;;8.00;99.31;93173.84;5091441;28;20072;-73
2024/03/08 09:50:22;;;;;;;9.05;6.78;;;;;;;7.79;98.26;93165.38;5090052;28;20428;-73
2024/03/08 09:52:50;;;;;;;6.70;4.88;;;;;;;7.86;97.10;93170.50;5089576;28;20544;-73
2024/03/08 09:55:21;;;;;;;6.57;4.97;;;;;;;7.93;93.69;93176.44;5088893;28;20052;-73
2024/03/08 10:00:30;;;;;;;7.65;5.72;;;;;;;7.86;94.95;93175.59;5093860;28;20051;-74
2024/03/08 10:03:02;;;;;;;9.07;6.45;;;;;;;8.21;96.80;93162.69;5091516;28;20082;-73
2024/03/08 10:05:29;;;;;;;6.75;5.20;;;;;;;8.41;94.29;93159.34;5094584;28;20052;-74
2024/03/08 10:07:56;;;;;;;6.43;5.47;;;;;;;8.69;95.28;93158.34;5097273;28;20048;-73
2024/03/08 10:10:23;;;;;;;7.78;5.43;;;;;;;8.85;88.11;93162.28;5091331;28;20408;-74
2024/03/08 10:12:50;;;;;;;6.45;4.28;;;;;;;9.11;88.61;93152.19;5096356;28;20058;-74
2024/03/08 10:15:17;;;;;;;6.53;4.63;;;;;;;9.43;90.28;93153.06;5091416;28;20054;-74
2024/03/08 10:17:45;;;;;;;6.38;5.32;;;;;;;9.15;88.12;93161.03;5089581;28;20135;-74
2024/03/08 10:20:17;;;;;;;7.97;4.80;;;;;;;9.30;84.79;93158.25;5090157;28;20058;-74
2024/03/08 10:22:44;;;;;;;4.72;3.70;;;;;;;9.09;82.43;93171.09;5090976;28;20079;-74
2024/03/08 10:25:13;;;;;;;4.95;3.83;;;;;;;9.09;88.78;93152.38;5091134;28;20046;-74
2024/03/08 10:27:40;;;;;;;4.55;3.05;;;;;;;9.44;82.63;93171.81;5092978;28;20050;-73
2024/03/08 10:30:12;;;;;;;4.88;2.63;;;;;;;9.50;81.33;93158.16;5090255;28;20058;-74
2024/03/08 10:32:40;;;;;;;6.57;3.22;;;;;;;9.43;80.41;93160.75;5089244;28;20052;-73
2024/03/08 10:35:08;;;;;;;3.03;2.20;;;;;;;9.12;79.38;93156.31;5089385;28;20397;-73
2024/03/08 10:37:45;;;;;;;3.58;2.47;;;;;;;9.57;81.37;93158.13;5088490;28;20861;-73
2024/03/08 10:40:17;;;;;;;3.28;2.22;;;;;;;9.23;77.73;93151.34;5088856;28;20063;-73
2024/03/08 10:42:52;;;;;;;4.53;2.53;;;;;;;9.18;78.79;93143.50;5095077;28;20589;-73
2024/03/08 10:45:31;;;;;;;6.40;4.47;;;;;;;9.55;76.03;93144.72;5089009;28;20063;-73
2024/03/08 10:48:22;;;;;;;6.57;4.15;;;;;;;9.51;74.42;93148.69;5090070;28;20554;-73
2024/03/08 10:50:50;;;;;;;3.92;2.35;;;;;;;9.48;79.49;93137.06;5089787;28;20044;-74
2024/03/08 10:53:21;;;;;;;24.35;9.20;;;;;;;9.46;77.05;93141.59;5088466;28;20481;-73
2024/03/08 10:55:48;;;;;;;4.25;2.75;;;;;;;9.20;74.94;93141.50;5092473;28;20098;-73
2024/03/08 10:58:15;;;;;;;4.88;2.90;;;;;;;9.38;76.12;93141.81;5095455;28;20432;-74
2024/03/08 11:00:43;;;;;;;4.22;2.70;;;;;;;9.96;79.43;93130.66;5090912;28;20602;-74
2024/03/08 11:03:45;;;;;;;4.03;2.42;;;;;;;9.46;73.48;93128.78;5088106;28;20148;-73
2024/03/08 11:06:17;;;;;;;3.33;2.00;;;;;;;9.47;71.94;93126.03;5088955;28;20078;-73
2024/03/08 11:08:47;;;;;;;5.05;2.70;;;;;;;9.96;79.03;93111.94;5088225;28;20052;-73
2024/03/08 11:11:30;;;;;;;3.95;2.60;;;;;;;10.21;74.66;93100.88;5087714;28;20049;-73
2024/03/08 11:13:57;;;;;;;4.15;2.30;;;;;;;10.44;70.37;93105.47;5087708;28;20043;-74
2024/03/08 11:16:48;;;;;;;7.80;4.32;;;;;;;10.54;72.91;93105.78;5093335;28;20641;-74
2024/03/08 11:19:27;;;;;;;12.30;5.10;;;;;;;10.03;73.32;93108.34;5077070;28;20062;-73
2024/03/08 11:22:02;;;;;;;9.35;5.22;;;;;;;10.54;74.85;93105.78;5099210;28;20589;-73
2024/03/08 11:24:39;;;;;;;5.18;3.45;;;;;;;10.94;71.69;93108.97;5092615;28;20051;-73
2024/03/08 11:27:07;;;;;;;5.13;3.35;;;;;;;11.07;76.31;93095.19;5096646;28;20042;-73
2024/03/08 11:29:37;;;;;;;6.40;3.28;;;;;;;10.88;66.92;93104.69;5101175;28;20130;-73
2024/03/08 11:32:12;;;;;;;5.07;3.42;;;;;;;11.28;72.81;93099.09;5095901;28;20048;-73
2024/03/08 11:34:40;;;;;;;7.00;4.13;;;;;;;11.31;70.67;93096.09;5093865;28;20406;-74